sensor_id;sensor_type;location;lat;lon;timestamp;pressure;altitude;pressure_sealevel;temperature;humidity
52249;BME280;38541;48.130;8.378;2023-07-20T00:01:50;92795.38;;;18.75;51.01
52249;BME280;38541;48.130;8.378;2023-07-20T00:04:17;92801.47;;;18.76;50.98
52249;BME280;38541;48.130;8.378;2023-07-20T00:06:43;92797.22;;;18.75;51.01
52249;BME280;38541;48.130;8.378;2023-07-20T00:09:10;92803.19;;;18.80;51.54
52249;BME280;38541;48.130;8.378;2023-07-20T00:11:37;92803.34;;;18.75;52.16
52249;BME280;38541;48.130;8.378;2023-07-20T00:14:05;92798.81;;;18.67;51.54
52249;BME280;38541;48.130;8.378;2023-07-20T00:16:32;92799.56;;;18.59;51.49
52249;BME280;38541;48.130;8.378;2023-07-20T00:18:59;92805.97;;;18.58;51.86
52249;BME280;38541;48.130;8.378;2023-07-20T00:21:25;92811.94;;;18.54;52.01
52249;BME280;38541;48.130;8.378;2023-07-20T00:23:52;92808.94;;;18.56;52.28
52249;BME280;38541;48.130;8.378;2023-07-20T00:26:19;92799.56;;;18.50;52.51
52249;BME280;38541;48.130;8.378;2023-07-20T00:28:49;92803.59;;;18.47;52.01
52249;BME280;38541;48.130;8.378;2023-07-20T00:31:18;92803.13;;;18.45;52.21
52249;BME280;38541;48.130;8.378;2023-07-20T00:33:45;92801.56;;;18.44;52.22
52249;BME280;38541;48.130;8.378;2023-07-20T00:36:12;92801.09;;;18.42;52.30
52249;BME280;38541;48.130;8.378;2023-07-20T00:38:42;92802.34;;;18.36;52.17
52249;BME280;38541;48.130;8.378;2023-07-20T00:41:08;92806.72;;;18.32;51.71
52249;BME280;38541;48.130;8.378;2023-07-20T00:46:24;92800.16;;;18.38;51.85
52249;BME280;38541;48.130;8.378;2023-07-20T00:48:53;92805.47;;;18.38;51.86
52249;BME280;38541;48.130;8.378;2023-07-20T00:51:21;92800.44;;;18.36;51.56
52249;BME280;38541;48.130;8.378;2023-07-20T00:53:49;92798.88;;;18.35;51.26
52249;BME280;38541;48.130;8.378;2023-07-20T00:56:16;92797.31;;;18.34;51.65
52249;BME280;38541;48.130;8.378;2023-07-20T00:58:43;92797.91;;;18.22;51.30
52249;BME280;38541;48.130;8.378;2023-07-20T01:01:10;92794.13;;;18.15;51.56
52249;BME280;38541;48.130;8.378;2023-07-20T01:03:37;92794.78;;;18.20;51.50
52249;BME280;38541;48.130;8.378;2023-07-20T01:06:12;92799.63;;;18.18;51.67
52249;BME280;38541;48.130;8.378;2023-07-20T01:12:22;92790.56;;;18.19;51.28
52249;BME280;38541;48.130;8.378;2023-07-20T01:14:29;92787.41;;;18.17;51.28
52249;BME280;38541;48.130;8.378;2023-07-20T01:16:56;92781.94;;;18.14;51.10
52249;BME280;38541;48.130;8.378;2023-07-20T01:19:23;92787.25;;;18.14;51.25
52249;BME280;38541;48.130;8.378;2023-07-20T01:21:55;92789.13;;;18.13;51.31
52249;BME280;38541;48.130;8.378;2023-07-20T01:24:49;92791.19;;;18.16;51.92
52249;BME280;38541;48.130;8.378;2023-07-20T01:33:19;92772.22;;;18.09;51.34
52249;BME280;38541;48.130;8.378;2023-07-20T01:35:49;92777.66;;;18.04;51.16
52249;BME280;38541;48.130;8.378;2023-07-20T01:38:18;92778.25;;;18.01;51.35
52249;BME280;38541;48.130;8.378;2023-07-20T01:40:48;92777.19;;;18.02;51.31
52249;BME280;38541;48.130;8.378;2023-07-20T01:43:16;92767.16;;;17.99;51.26
52249;BME280;38541;48.130;8.378;2023-07-20T01:45:43;92780.13;;;18.00;51.18
52249;BME280;38541;48.130;8.378;2023-07-20T01:48:10;92775.59;;;18.01;51.23
52249;BME280;38541;48.130;8.378;2023-07-20T01:50:36;92764.97;;;18.01;51.28
52249;BME280;38541;48.130;8.378;2023-07-20T01:53:03;92767.16;;;17.99;50.94
52249;BME280;38541;48.130;8.378;2023-07-20T01:55:29;92762.94;;;17.97;51.00
52249;BME280;38541;48.130;8.378;2023-07-20T01:57:56;92770.91;;;17.97;51.45
52249;BME280;38541;48.130;8.378;2023-07-20T02:00:23;92765.88;;;17.96;51.55
52249;BME280;38541;48.130;8.378;2023-07-20T02:02:51;92758.72;;;17.96;51.66
52249;BME280;38541;48.130;8.378;2023-07-20T02:05:18;92750.72;;;17.96;53.47
52249;BME280;38541;48.130;8.378;2023-07-20T02:07:45;92758.72;;;17.96;53.96
52249;BME280;38541;48.130;8.378;2023-07-20T02:10:16;92762.47;;;17.95;53.79
52249;BME280;38541;48.130;8.378;2023-07-20T02:12:43;92766.03;;;17.91;54.21
52249;BME280;38541;48.130;8.378;2023-07-20T02:15:10;92758.97;;;17.86;54.16
52249;BME280;38541;48.130;8.378;2023-07-20T02:17:37;92759.09;;;17.81;54.51
52249;BME280;38541;48.130;8.378;2023-07-20T02:20:04;92760.34;;;17.75;55.35
52249;BME280;38541;48.130;8.378;2023-07-20T02:22:31;92761.03;;;17.58;56.44
52249;BME280;38541;48.130;8.378;2023-07-20T02:24:57;92764.91;;;17.51;56.70
52249;BME280;38541;48.130;8.378;2023-07-20T02:27:24;92762.06;;;17.48;56.63
52249;BME280;38541;48.130;8.378;2023-07-20T02:29:51;92760.63;;;17.42;56.80
52249;BME280;38541;48.130;8.378;2023-07-20T02:32:17;92763.44;;;17.36;56.54
52249;BME280;38541;48.130;8.378;2023-07-20T02:34:44;92761.97;;;17.30;56.47
52249;BME280;38541;48.130;8.378;2023-07-20T02:37:10;92764.00;;;17.33;56.57
52249;BME280;38541;48.130;8.378;2023-07-20T02:39:39;92762.59;;;17.27;56.09
52249;BME280;38541;48.130;8.378;2023-07-20T02:42:06;92761.91;;;17.21;56.28
52249;BME280;38541;48.130;8.378;2023-07-20T02:44:33;92757.09;;;17.23;56.77
52249;BME280;38541;48.130;8.378;2023-07-20T02:47:00;92760.06;;;17.22;56.34
52249;BME280;38541;48.130;8.378;2023-07-20T02:49:27;92764.28;;;17.23;56.74
52249;BME280;38541;48.130;8.378;2023-07-20T02:51:54;92761.28;;;17.16;56.59
52249;BME280;38541;48.130;8.378;2023-07-20T02:54:21;92761.75;;;17.18;56.97
52249;BME280;38541;48.130;8.378;2023-07-20T02:56:48;92766.28;;;17.17;56.78
52249;BME280;38541;48.130;8.378;2023-07-20T02:59:45;92768.44;;;17.15;57.11
52249;BME280;38541;48.130;8.378;2023-07-20T03:02:13;92769.06;;;17.12;57.55
52249;BME280;38541;48.130;8.378;2023-07-20T03:04:39;92766.22;;;17.08;57.26
52249;BME280;38541;48.130;8.378;2023-07-20T03:07:06;92770.06;;;17.02;57.27
52249;BME280;38541;48.130;8.378;2023-07-20T03:09:34;92768.50;;;17.01;57.19
52249;BME280;38541;48.130;8.378;2023-07-20T03:12:00;92769.88;;;16.99;57.29
52249;BME280;38541;48.130;8.378;2023-07-20T03:14:28;92767.44;;;16.88;57.38
52249;BME280;38541;48.130;8.378;2023-07-20T03:16:56;92768.94;;;16.80;57.58
52249;BME280;38541;48.130;8.378;2023-07-20T03:19:22;92764.81;;;16.74;58.06
52249;BME280;38541;48.130;8.378;2023-07-20T03:21:49;92774.47;;;16.70;57.80
52249;BME280;38541;48.130;8.378;2023-07-20T03:24:15;92762.91;;;16.66;58.31
52249;BME280;38541;48.130;8.378;2023-07-20T03:26:42;92764.59;;;16.62;58.32
52249;BME280;38541;48.130;8.378;2023-07-20T03:29:08;92761.53;;;16.54;58.39
52249;BME280;38541;48.130;8.378;2023-07-20T03:31:35;92768.72;;;16.54;58.92
52249;BME280;38541;48.130;8.378;2023-07-20T03:34:02;92766.97;;;16.49;58.91
52249;BME280;38541;48.130;8.378;2023-07-20T03:36:28;92772.53;;;16.48;58.72
52249;BME280;38541;48.130;8.378;2023-07-20T03:38:55;92783.16;;;16.48;58.67
52249;BME280;38541;48.130;8.378;2023-07-20T03:41:21;92771.56;;;16.44;58.66
52249;BME280;38541;48.130;8.378;2023-07-20T03:43:48;92773.75;;;16.42;58.12
52249;BME280;38541;48.130;8.378;2023-07-20T03:46:15;92776.88;;;16.44;58.02
52249;BME280;38541;48.130;8.378;2023-07-20T03:48:42;92776.59;;;16.45;58.48
52249;BME280;38541;48.130;8.378;2023-07-20T03:51:08;92780.53;;;16.34;58.97
52249;BME280;38541;48.130;8.378;2023-07-20T03:53:35;92777.72;;;16.30;58.68
52249;BME280;38541;48.130;8.378;2023-07-20T03:56:01;92773.41;;;16.20;59.04
52249;BME280;38541;48.130;8.378;2023-07-20T03:58:28;92781.03;;;16.22;58.77
52249;BME280;38541;48.130;8.378;2023-07-20T04:00:57;92779.66;;;16.24;58.91
52249;BME280;38541;48.130;8.378;2023-07-20T04:03:24;92789.19;;;16.25;58.92
52249;BME280;38541;48.130;8.378;2023-07-20T04:05:54;92789.47;;;16.24;58.62
52249;BME280;38541;48.130;8.378;2023-07-20T04:08:23;92787.63;;;16.24;58.49
52249;BME280;38541;48.130;8.378;2023-07-20T04:10:50;92792.31;;;16.28;59.13
52249;BME280;38541;48.130;8.378;2023-07-20T04:13:18;92789.69;;;16.28;58.84
52249;BME280;38541;48.130;8.378;2023-07-20T04:15:44;92791.72;;;16.31;59.40
52249;BME280;38541;48.130;8.378;2023-07-20T04:18:11;92794.28;;;16.36;59.55
52249;BME280;38541;48.130;8.378;2023-07-20T04:20:38;92790.66;;;16.32;59.72
52249;BME280;38541;48.130;8.378;2023-07-20T04:23:04;92790.16;;;16.30;59.61
52249;BME280;38541;48.130;8.378;2023-07-20T04:25:31;92798.59;;;16.32;59.67
52249;BME280;38541;48.130;8.378;2023-07-20T04:28:07;92785.34;;;16.32;59.87
52249;BME280;38541;48.130;8.378;2023-07-20T04:30:42;92785.56;;;16.35;59.79
52249;BME280;38541;48.130;8.378;2023-07-20T04:33:09;92788.97;;;16.36;59.80
52249;BME280;38541;48.130;8.378;2023-07-20T04:35:54;92794.78;;;16.24;59.10
52249;BME280;38541;48.130;8.378;2023-07-20T04:38:27;92790.88;;;16.21;59.32
52249;BME280;38541;48.130;8.378;2023-07-20T04:41:01;92788.09;;;16.26;59.60
52249;BME280;38541;48.130;8.378;2023-07-20T04:43:31;92785.94;;;16.29;59.14
52249;BME280;38541;48.130;8.378;2023-07-20T04:45:57;92783.19;;;16.34;59.70
52249;BME280;38541;48.130;8.378;2023-07-20T04:48:25;92791.03;;;16.39;59.59
52249;BME280;38541;48.130;8.378;2023-07-20T04:50:53;92789.44;;;16.38;59.19
52249;BME280;38541;48.130;8.378;2023-07-20T04:53:20;92793.88;;;16.43;59.38
52249;BME280;38541;48.130;8.378;2023-07-20T04:55:48;92785.31;;;16.46;59.25
52249;BME280;38541;48.130;8.378;2023-07-20T04:58:21;92790.06;;;16.49;58.81
52249;BME280;38541;48.130;8.378;2023-07-20T05:00:50;92790.53;;;16.51;59.03
52249;BME280;38541;48.130;8.378;2023-07-20T05:03:17;92787.28;;;16.54;58.28
52249;BME280;38541;48.130;8.378;2023-07-20T05:05:44;92784.53;;;16.59;58.49
52249;BME280;38541;48.130;8.378;2023-07-20T05:08:14;92798.47;;;16.65;58.36
52249;BME280;38541;48.130;8.378;2023-07-20T05:10:42;92791.00;;;16.67;58.17
52249;BME280;38541;48.130;8.378;2023-07-20T05:13:09;92789.31;;;16.71;58.79
52249;BME280;38541;48.130;8.378;2023-07-20T05:15:35;92798.22;;;16.75;58.97
52249;BME280;38541;48.130;8.378;2023-07-20T05:18:03;92790.88;;;16.72;59.09
52249;BME280;38541;48.130;8.378;2023-07-20T05:20:30;92791.34;;;16.74;59.19
52249;BME280;38541;48.130;8.378;2023-07-20T05:22:58;92790.28;;;16.75;58.84
52249;BME280;38541;48.130;8.378;2023-07-20T05:25:25;92783.88;;;16.76;59.13
52249;BME280;38541;48.130;8.378;2023-07-20T05:27:54;92787.41;;;16.86;59.11
52249;BME280;38541;48.130;8.378;2023-07-20T05:30:21;92791.50;;;16.92;58.50
52249;BME280;38541;48.130;8.378;2023-07-20T05:32:48;92787.75;;;16.93;58.44
52249;BME280;38541;48.130;8.378;2023-07-20T05:35:18;92782.66;;;16.96;58.77
52249;BME280;38541;48.130;8.378;2023-07-20T05:37:45;92785.59;;;16.95;58.51
52249;BME280;38541;48.130;8.378;2023-07-20T05:40:12;92789.25;;;16.99;59.44
52249;BME280;38541;48.130;8.378;2023-07-20T05:42:39;92791.31;;;17.02;59.15
52249;BME280;38541;48.130;8.378;2023-07-20T05:45:06;92784.78;;;17.08;58.79
52249;BME280;38541;48.130;8.378;2023-07-20T05:47:33;92786.53;;;17.13;58.21
52249;BME280;38541;48.130;8.378;2023-07-20T05:50:00;92780.22;;;17.23;58.42
52249;BME280;38541;48.130;8.378;2023-07-20T05:52:27;92779.00;;;17.29;58.29
52249;BME280;38541;48.130;8.378;2023-07-20T05:54:53;92772.19;;;17.14;57.50
52249;BME280;38541;48.130;8.378;2023-07-20T05:57:20;92780.16;;;17.14;57.30
52249;BME280;38541;48.130;8.378;2023-07-20T05:59:46;92779.06;;;17.15;57.27
52249;BME280;38541;48.130;8.378;2023-07-20T06:02:13;92781.25;;;17.13;56.21
52249;BME280;38541;48.130;8.378;2023-07-20T06:04:40;92782.19;;;17.17;55.56
52249;BME280;38541;48.130;8.378;2023-07-20T06:07:06;92781.72;;;17.15;55.97
52249;BME280;38541;48.130;8.378;2023-07-20T06:09:34;92781.72;;;17.15;55.92
52249;BME280;38541;48.130;8.378;2023-07-20T06:12:01;92786.47;;;17.27;56.00
52249;BME280;38541;48.130;8.378;2023-07-20T06:14:27;92787.00;;;17.38;55.86
52249;BME280;38541;48.130;8.378;2023-07-20T06:16:54;92782.84;;;17.46;55.27
52249;BME280;38541;48.130;8.378;2023-07-20T06:19:21;92782.84;;;17.46;54.41
52249;BME280;38541;48.130;8.378;2023-07-20T06:21:48;92783.22;;;17.53;54.35
52249;BME280;38541;48.130;8.378;2023-07-20T06:24:17;92775.19;;;17.44;54.40
52249;BME280;38541;48.130;8.378;2023-07-20T06:26:44;92780.31;;;17.40;54.10
52249;BME280;38541;48.130;8.378;2023-07-20T06:29:10;92780.81;;;17.43;54.18
52249;BME280;38541;48.130;8.378;2023-07-20T06:31:37;92781.41;;;17.39;54.21
52249;BME280;38541;48.130;8.378;2023-07-20T06:34:04;92778.91;;;17.43;54.41
52249;BME280;38541;48.130;8.378;2023-07-20T06:36:31;92779.84;;;17.38;53.88
52249;BME280;38541;48.130;8.378;2023-07-20T06:38:59;92770.59;;;17.36;53.69
52249;BME280;38541;48.130;8.378;2023-07-20T06:41:29;92777.06;;;17.21;54.04
52249;BME280;38541;48.130;8.378;2023-07-20T06:43:59;92772.25;;;17.23;54.37
52249;BME280;38541;48.130;8.378;2023-07-20T06:46:26;92772.31;;;17.32;53.42
52249;BME280;38541;48.130;8.378;2023-07-20T06:48:54;92779.47;;;17.31;53.70
52249;BME280;38541;48.130;8.378;2023-07-20T06:51:24;92778.09;;;17.34;54.22
52249;BME280;38541;48.130;8.378;2023-07-20T06:53:52;92783.69;;;17.32;52.80
52249;BME280;38541;48.130;8.378;2023-07-20T06:56:19;92777.13;;;17.30;53.08
52249;BME280;38541;48.130;8.378;2023-07-20T06:58:51;92784.84;;;17.40;53.29
52249;BME280;38541;48.130;8.378;2023-07-20T07:01:18;92779.38;;;17.36;52.82
52249;BME280;38541;48.130;8.378;2023-07-20T07:03:48;92787.75;;;17.30;52.93
52249;BME280;38541;48.130;8.378;2023-07-20T07:06:20;92781.53;;;17.34;53.32
52249;BME280;38541;48.130;8.378;2023-07-20T07:08:49;92782.41;;;17.52;53.08
52249;BME280;38541;48.130;8.378;2023-07-20T07:11:17;92772.59;;;17.53;52.71
52249;BME280;38541;48.130;8.378;2023-07-20T07:13:47;92776.69;;;17.59;52.53
52249;BME280;38541;48.130;8.378;2023-07-20T07:16:17;92775.25;;;17.62;51.88
52249;BME280;38541;48.130;8.378;2023-07-20T07:18:46;92779.34;;;17.59;52.11
52249;BME280;38541;48.130;8.378;2023-07-20T07:21:14;92782.31;;;17.66;52.49
52249;BME280;38541;48.130;8.378;2023-07-20T07:23:41;92784.56;;;17.73;51.75
52249;BME280;38541;48.130;8.378;2023-07-20T07:26:09;92780.03;;;17.74;52.10
52249;BME280;38541;48.130;8.378;2023-07-20T07:28:37;92785.91;;;17.93;51.90
52249;BME280;38541;48.130;8.378;2023-07-20T07:31:07;92777.19;;;18.02;51.24
52249;BME280;38541;48.130;8.378;2023-07-20T07:33:34;92783.00;;;18.04;51.73
52249;BME280;38541;48.130;8.378;2023-07-20T07:36:02;92779.59;;;18.12;52.18
52249;BME280;38541;48.130;8.378;2023-07-20T07:38:29;92781.94;;;18.22;51.59
52249;BME280;38541;48.130;8.378;2023-07-20T07:41:16;92778.25;;;18.41;51.78
52249;BME280;38541;48.130;8.378;2023-07-20T07:43:42;92784.03;;;18.43;50.87
52249;BME280;38541;48.130;8.378;2023-07-20T07:46:09;92779.66;;;18.38;50.85
52249;BME280;38541;48.130;8.378;2023-07-20T07:48:36;92786.06;;;18.46;51.18
52249;BME280;38541;48.130;8.378;2023-07-20T07:51:02;92783.41;;;18.46;50.07
52249;BME280;38541;48.130;8.378;2023-07-20T07:53:29;92779.63;;;18.21;50.62
52249;BME280;38541;48.130;8.378;2023-07-20T07:55:55;92776.19;;;18.29;51.06
52249;BME280;38541;48.130;8.378;2023-07-20T07:58:22;92784.84;;;18.52;50.85
52249;BME280;38541;48.130;8.378;2023-07-20T08:00:48;92781.25;;;18.66;50.29
52249;BME280;38541;48.130;8.378;2023-07-20T08:03:15;92774.88;;;18.67;50.12
52249;BME280;38541;48.130;8.378;2023-07-20T08:05:42;92784.09;;;18.78;49.86
52249;BME280;38541;48.130;8.378;2023-07-20T08:08:09;92778.59;;;18.83;48.22
52249;BME280;38541;48.130;8.378;2023-07-20T08:10:36;92782.84;;;18.93;49.99
52249;BME280;38541;48.130;8.378;2023-07-20T08:13:02;92776.31;;;19.08;48.80
52249;BME280;38541;48.130;8.378;2023-07-20T08:15:29;92768.31;;;19.08;48.46
52249;BME280;38541;48.130;8.378;2023-07-20T08:17:55;92778.97;;;19.08;48.40
52249;BME280;38541;48.130;8.378;2023-07-20T08:20:23;92775.34;;;18.95;47.45
52249;BME280;38541;48.130;8.378;2023-07-20T08:22:54;92773.63;;;18.91;47.38
52249;BME280;38541;48.130;8.378;2023-07-20T08:25:21;92775.34;;;19.04;48.72
52249;BME280;38541;48.130;8.378;2023-07-20T08:27:47;92776.44;;;19.03;48.75
52249;BME280;38541;48.130;8.378;2023-07-20T08:30:14;92775.31;;;19.31;48.69
52249;BME280;38541;48.130;8.378;2023-07-20T08:32:41;92774.38;;;19.44;47.39
52249;BME280;38541;48.130;8.378;2023-07-20T08:35:08;92775.31;;;19.48;46.35
52249;BME280;38541;48.130;8.378;2023-07-20T08:37:34;92767.50;;;19.34;46.42
52249;BME280;38541;48.130;8.378;2023-07-20T08:40:01;92765.28;;;19.36;47.32
52249;BME280;38541;48.130;8.378;2023-07-20T08:42:29;92773.44;;;19.40;48.37
52249;BME280;38541;48.130;8.378;2023-07-20T08:44:57;92783.91;;;19.54;47.61
52249;BME280;38541;48.130;8.378;2023-07-20T08:47:25;92775.44;;;19.61;47.29
52249;BME280;38541;48.130;8.378;2023-07-20T08:49:53;92770.44;;;19.42;46.98
52249;BME280;38541;48.130;8.378;2023-07-20T08:52:21;92773.78;;;19.21;47.38
52249;BME280;38541;48.130;8.378;2023-07-20T08:54:48;92764.06;;;19.25;47.33
52249;BME280;38541;48.130;8.378;2023-07-20T08:57:15;92772.53;;;19.27;46.98
52249;BME280;38541;48.130;8.378;2023-07-20T08:59:43;92767.97;;;19.19;48.17
52249;BME280;38541;48.130;8.378;2023-07-20T09:02:15;92770.19;;;19.17;47.58
52249;BME280;38541;48.130;8.378;2023-07-20T09:04:45;92769.88;;;19.18;46.75
52249;BME280;38541;48.130;8.378;2023-07-20T09:07:13;92772.38;;;19.15;47.11
52249;BME280;38541;48.130;8.378;2023-07-20T09:09:41;92781.28;;;19.19;46.84
52249;BME280;38541;48.130;8.378;2023-07-20T09:12:15;92773.75;;;19.38;45.60
52249;BME280;38541;48.130;8.378;2023-07-20T09:14:43;92770.94;;;19.52;45.33
52249;BME280;38541;48.130;8.378;2023-07-20T09:17:14;92769.94;;;19.66;45.84
52249;BME280;38541;48.130;8.378;2023-07-20T09:19:47;92767.56;;;19.82;45.75
52249;BME280;38541;48.130;8.378;2023-07-20T09:22:14;92772.56;;;19.75;45.54
52249;BME280;38541;48.130;8.378;2023-07-20T09:24:41;92768.19;;;19.70;44.52
52249;BME280;38541;48.130;8.378;2023-07-20T09:27:09;92769.13;;;19.74;44.46
52249;BME280;38541;48.130;8.378;2023-07-20T09:29:51;92763.81;;;19.74;44.82
52249;BME280;38541;48.130;8.378;2023-07-20T09:32:21;92771.59;;;19.88;44.94
52249;BME280;38541;48.130;8.378;2023-07-20T09:34:51;92768.81;;;19.76;44.27
52249;BME280;38541;48.130;8.378;2023-07-20T09:37:22;92766.09;;;19.93;45.01
52249;BME280;38541;48.130;8.378;2023-07-20T09:39:52;92753.25;;;20.26;45.25
52249;BME280;38541;48.130;8.378;2023-07-20T09:42:24;92765.22;;;20.49;44.62
52249;BME280;38541;48.130;8.378;2023-07-20T09:44:55;92758.84;;;20.63;45.75
52249;BME280;38541;48.130;8.378;2023-07-20T09:47:23;92757.03;;;20.76;43.57
52249;BME280;38541;48.130;8.378;2023-07-20T09:49:58;92753.69;;;20.79;43.23
52249;BME280;38541;48.130;8.378;2023-07-20T09:52:30;92760.19;;;20.99;42.31
52249;BME280;38541;48.130;8.378;2023-07-20T09:55:00;92762.50;;;21.01;42.23
52249;BME280;38541;48.130;8.378;2023-07-20T09:57:27;92764.03;;;20.59;42.27
52249;BME280;38541;48.130;8.378;2023-07-20T09:59:55;92750.03;;;20.41;43.64
52249;BME280;38541;48.130;8.378;2023-07-20T10:02:33;92752.47;;;20.25;43.35
52249;BME280;38541;48.130;8.378;2023-07-20T10:05:03;92753.00;;;20.18;44.21
52249;BME280;38541;48.130;8.378;2023-07-20T10:07:36;92739.00;;;20.21;44.02
52249;BME280;38541;48.130;8.378;2023-07-20T10:10:06;92739.22;;;20.37;44.67
52249;BME280;38541;48.130;8.378;2023-07-20T10:12:34;92736.91;;;20.57;44.72
52249;BME280;38541;48.130;8.378;2023-07-20T10:15:17;92725.50;;;20.69;44.31
52249;BME280;38541;48.130;8.378;2023-07-20T10:17:57;92735.31;;;20.86;44.74
52249;BME280;38541;48.130;8.378;2023-07-20T10:20:27;92735.97;;;20.74;43.38
52249;BME280;38541;48.130;8.378;2023-07-20T10:22:55;92728.59;;;20.80;43.08
52249;BME280;38541;48.130;8.378;2023-07-20T10:25:23;92734.22;;;20.87;43.39
52249;BME280;38541;48.130;8.378;2023-07-20T10:27:51;92728.31;;;20.94;43.37
52249;BME280;38541;48.130;8.378;2023-07-20T10:30:18;92722.06;;;20.90;42.59
52249;BME280;38541;48.130;8.378;2023-07-20T10:32:47;92720.38;;;20.64;43.18
52249;BME280;38541;48.130;8.378;2023-07-20T10:35:15;92716.44;;;20.61;42.88
52249;BME280;38541;48.130;8.378;2023-07-20T10:37:49;92721.63;;;20.88;42.65
52249;BME280;38541;48.130;8.378;2023-07-20T10:43:04;92720.03;;;21.42;41.70
52249;BME280;38541;48.130;8.378;2023-07-20T10:45:48;92715.19;;;21.69;42.69
52249;BME280;38541;48.130;8.378;2023-07-20T10:48:18;92725.81;;;21.90;41.18
52249;BME280;38541;48.130;8.378;2023-07-20T10:51:12;92721.22;;;21.65;40.91
52249;BME280;38541;48.130;8.378;2023-07-20T10:53:42;92721.09;;;21.62;40.59
52249;BME280;38541;48.130;8.378;2023-07-20T10:56:14;92722.25;;;21.40;40.66
52249;BME280;38541;48.130;8.378;2023-07-20T10:58:41;92716.00;;;21.82;40.78
52249;BME280;38541;48.130;8.378;2023-07-20T11:01:13;92719.69;;;21.77;40.66
52249;BME280;38541;48.130;8.378;2023-07-20T11:03:42;92707.75;;;22.12;41.18
52249;BME280;38541;48.130;8.378;2023-07-20T11:09:09;92705.53;;;22.01;39.84
52249;BME280;38541;48.130;8.378;2023-07-20T11:11:47;92718.03;;;22.22;39.80
52249;BME280;38541;48.130;8.378;2023-07-20T11:14:24;92708.75;;;22.32;40.84
52249;BME280;38541;48.130;8.378;2023-07-20T11:16:53;92705.41;;;21.98;40.23
52249;BME280;38541;48.130;8.378;2023-07-20T11:19:24;92703.41;;;21.94;39.63
52249;BME280;38541;48.130;8.378;2023-07-20T11:21:58;92704.06;;;22.04;40.28
52249;BME280;38541;48.130;8.378;2023-07-20T11:24:30;92705.63;;;22.17;39.17
52249;BME280;38541;48.130;8.378;2023-07-20T11:26:58;92696.69;;;22.26;39.16
52249;BME280;38541;48.130;8.378;2023-07-20T11:29:24;92700.03;;;22.35;39.43
52249;BME280;38541;48.130;8.378;2023-07-20T11:32:00;92692.47;;;22.37;39.33
52249;BME280;38541;48.130;8.378;2023-07-20T11:34:27;92682.25;;;22.68;39.85
52249;BME280;38541;48.130;8.378;2023-07-20T11:36:54;92679.59;;;22.68;38.67
52249;BME280;38541;48.130;8.378;2023-07-20T11:39:24;92679.13;;;23.06;38.06
52249;BME280;38541;48.130;8.378;2023-07-20T11:41:54;92684.72;;;23.30;37.81
52249;BME280;38541;48.130;8.378;2023-07-20T11:44:23;92685.09;;;23.16;36.59
52249;BME280;38541;48.130;8.378;2023-07-20T11:47:10;92673.56;;;23.28;35.95
52249;BME280;38541;48.130;8.378;2023-07-20T11:49:43;92679.97;;;23.11;35.98
52249;BME280;38541;48.130;8.378;2023-07-20T11:52:11;92673.09;;;23.70;35.95
52249;BME280;38541;48.130;8.378;2023-07-20T11:54:40;92671.78;;;23.80;36.90
52249;BME280;38541;48.130;8.378;2023-07-20T11:57:20;92667.72;;;23.70;36.53
52249;BME280;38541;48.130;8.378;2023-07-20T12:00:13;92668.28;;;23.96;36.39
52249;BME280;38541;48.130;8.378;2023-07-20T12:02:41;92653.63;;;24.25;36.13
52249;BME280;38541;48.130;8.378;2023-07-20T12:05:07;92646.59;;;24.36;37.15
52249;BME280;38541;48.130;8.378;2023-07-20T12:07:36;92652.59;;;24.30;35.02
52249;BME280;38541;48.130;8.378;2023-07-20T12:10:08;92640.66;;;24.27;35.82
52249;BME280;38541;48.130;8.378;2023-07-20T12:12:38;92643.63;;;24.42;35.03
52249;BME280;38541;48.130;8.378;2023-07-20T12:15:20;92646.91;;;24.15;35.39
52249;BME280;38541;48.130;8.378;2023-07-20T12:17:55;92656.16;;;24.54;34.94
52249;BME280;38541;48.130;8.378;2023-07-20T12:20:26;92648.66;;;24.63;34.05
52249;BME280;38541;48.130;8.378;2023-07-20T12:23:16;92653.50;;;24.73;33.41
52249;BME280;38541;48.130;8.378;2023-07-20T12:25:45;92662.94;;;24.47;32.45
52249;BME280;38541;48.130;8.378;2023-07-20T12:28:17;92642.44;;;24.39;32.28
52249;BME280;38541;48.130;8.378;2023-07-20T12:30:45;92637.50;;;24.61;32.42
52249;BME280;38541;48.130;8.378;2023-07-20T12:33:12;92640.50;;;24.95;33.73
52249;BME280;38541;48.130;8.378;2023-07-20T12:35:42;92640.63;;;24.83;34.37
52249;BME280;38541;48.130;8.378;2023-07-20T12:38:12;92637.22;;;25.05;34.16
52249;BME280;38541;48.130;8.378;2023-07-20T12:40:39;92627.69;;;25.08;34.02
52249;BME280;38541;48.130;8.378;2023-07-20T12:43:07;92635.97;;;24.99;33.81
52249;BME280;38541;48.130;8.378;2023-07-20T12:45:34;92630.72;;;25.06;33.97
52249;BME280;38541;48.130;8.378;2023-07-20T12:48:00;92627.53;;;25.20;33.67
52249;BME280;38541;48.130;8.378;2023-07-20T12:50:27;92620.19;;;25.64;33.84
52249;BME280;38541;48.130;8.378;2023-07-20T12:52:53;92613.53;;;25.81;32.92
52249;BME280;38541;48.130;8.378;2023-07-20T12:55:20;92620.59;;;25.66;33.06
52249;BME280;38541;48.130;8.378;2023-07-20T12:57:46;92611.91;;;25.76;32.87
52249;BME280;38541;48.130;8.378;2023-07-20T13:00:14;92618.19;;;25.84;32.95
52249;BME280;38541;48.130;8.378;2023-07-20T13:02:40;92615.56;;;25.64;33.27
52249;BME280;38541;48.130;8.378;2023-07-20T13:05:08;92609.59;;;25.75;33.44
52249;BME280;38541;48.130;8.378;2023-07-20T13:07:39;92614.34;;;26.39;30.81
52249;BME280;38541;48.130;8.378;2023-07-20T13:10:10;92597.44;;;27.97;27.51
52249;BME280;38541;48.130;8.378;2023-07-20T13:12:38;92611.47;;;28.95;28.13
52249;BME280;38541;48.130;8.378;2023-07-20T13:15:07;92606.53;;;30.21;25.50
52249;BME280;38541;48.130;8.378;2023-07-20T13:17:40;92604.63;;;29.81;24.82
52249;BME280;38541;48.130;8.378;2023-07-20T13:20:08;92611.63;;;29.57;25.29
52249;BME280;38541;48.130;8.378;2023-07-20T13:22:37;92602.59;;;28.98;27.49
52249;BME280;38541;48.130;8.378;2023-07-20T13:25:04;92600.16;;;28.75;26.91
52249;BME280;38541;48.130;8.378;2023-07-20T13:27:32;92591.81;;;29.20;27.39